createdAt,value
2019-05-31T00:00:10.804Z,925.95
2019-05-31T00:01:10.816Z,925.96
2019-05-31T00:02:10.944Z,926.03
2019-05-31T00:03:10.959Z,926.08
2019-05-31T00:04:10.944Z,926.12
2019-05-31T00:05:11.034Z,926.09
2019-05-31T00:06:11.080Z,926.09
2019-05-31T00:07:11.234Z,926.07
2019-05-31T00:08:11.119Z,926.07
2019-05-31T00:09:11.167Z,926.00
2019-05-31T00:10:11.373Z,925.98
2019-05-31T00:11:11.251Z,925.95
2019-05-31T00:12:11.297Z,925.90
2019-05-31T00:13:11.498Z,925.84
2019-05-31T00:14:20.558Z,925.84
2019-05-31T00:15:11.423Z,925.80
2019-05-31T00:16:11.524Z,925.83
2019-05-31T00:17:11.589Z,925.86
2019-05-31T00:18:11.560Z,925.81
2019-05-31T00:19:11.661Z,925.82
2019-05-31T00:20:11.705Z,925.80
2019-05-31T00:21:11.703Z,925.83
2019-05-31T00:22:11.791Z,925.82
2019-05-31T00:23:11.840Z,925.84
2019-05-31T00:24:11.853Z,925.83
2019-05-31T00:25:11.882Z,925.89
2019-05-31T00:26:11.934Z,925.88
2019-05-31T00:27:11.981Z,925.89
2019-05-31T00:28:12.010Z,925.93
2019-05-31T00:29:12.078Z,925.98
2019-05-31T00:30:12.088Z,926.01
2019-05-31T00:31:12.150Z,926.04
2019-05-31T00:32:12.199Z,926.03
2019-05-31T00:33:12.271Z,925.98
2019-05-31T00:34:12.272Z,925.97
2019-05-31T00:35:12.373Z,925.92
2019-05-31T00:36:12.392Z,925.92
2019-05-31T00:37:12.394Z,925.90
2019-05-31T00:38:12.479Z,925.86
2019-05-31T00:39:12.505Z,925.85
2019-05-31T00:40:12.550Z,925.81
2019-05-31T00:41:12.597Z,925.79
2019-05-31T00:42:12.618Z,925.77
2019-05-31T00:43:12.669Z,925.78
2019-05-31T00:44:12.710Z,925.79
2019-05-31T00:45:12.773Z,925.80
2019-05-31T00:46:12.843Z,925.80
2019-05-31T00:47:12.872Z,925.85
2019-05-31T00:48:12.908Z,925.87
2019-05-31T00:49:13.004Z,925.87
2019-05-31T00:50:12.989Z,925.86
2019-05-31T00:51:13.036Z,925.87
2019-05-31T00:52:13.126Z,925.87
2019-05-31T00:53:13.113Z,925.89
2019-05-31T00:54:13.176Z,925.97
2019-05-31T00:55:13.197Z,925.91
2019-05-31T00:56:13.268Z,925.93
2019-05-31T00:57:13.310Z,925.96
2019-05-31T00:58:13.339Z,925.92
2019-05-31T00:59:13.374Z,925.91
2019-05-31T01:00:13.429Z,925.87
2019-05-31T01:01:13.478Z,925.85
2019-05-31T01:02:13.537Z,925.79
2019-05-31T01:03:13.562Z,925.80
2019-05-31T01:04:13.607Z,925.71
2019-05-31T01:05:13.665Z,925.74
2019-05-31T01:06:13.753Z,925.70
2019-05-31T01:07:13.857Z,925.76
2019-05-31T01:08:13.836Z,925.74
2019-05-31T01:09:13.835Z,925.73
2019-05-31T01:10:13.889Z,925.71
2019-05-31T01:11:13.935Z,925.70
2019-05-31T01:12:13.965Z,925.69
2019-05-31T01:13:14.103Z,925.63
2019-05-31T01:14:14.119Z,925.59
2019-05-31T01:15:14.098Z,925.57
2019-05-31T01:16:14.203Z,925.54
2019-05-31T01:17:14.304Z,925.57
2019-05-31T01:18:14.281Z,925.53
2019-05-31T01:19:14.314Z,925.55
2019-05-31T01:20:14.362Z,925.55
2019-05-31T01:21:14.414Z,925.55
2019-05-31T01:22:14.426Z,925.57
2019-05-31T01:23:14.615Z,925.60
2019-05-31T01:24:14.534Z,925.59
2019-05-31T01:25:14.597Z,925.59
2019-05-31T01:26:14.620Z,925.59
2019-05-31T01:27:14.668Z,925.60
2019-05-31T01:28:14.725Z,925.58
2019-05-31T01:29:14.824Z,925.60
2019-05-31T01:30:14.763Z,925.62
2019-05-31T01:31:14.867Z,925.59
2019-05-31T01:32:14.992Z,925.61
2019-05-31T01:33:14.951Z,925.63
2019-05-31T01:34:15.004Z,925.61
2019-05-31T01:35:15.040Z,925.61
2019-05-31T01:36:15.088Z,925.64
2019-05-31T01:37:15.149Z,925.65
2019-05-31T01:38:15.156Z,925.68
2019-05-31T01:39:15.203Z,925.70
2019-05-31T01:40:15.375Z,925.70
2019-05-31T01:41:15.307Z,925.68
2019-05-31T01:42:15.313Z,925.70
2019-05-31T01:43:15.889Z,925.67
2019-05-31T01:44:15.430Z,925.70
2019-05-31T01:45:18.843Z,925.68
2019-05-31T01:46:15.517Z,925.69
2019-05-31T01:47:15.925Z,925.69
2019-05-31T01:48:15.625Z,925.68
2019-05-31T01:49:15.653Z,925.66
2019-05-31T01:50:15.811Z,925.66
2019-05-31T01:51:15.751Z,925.66
2019-05-31T01:52:15.788Z,925.70
2019-05-31T01:53:15.832Z,925.70
2019-05-31T01:54:15.885Z,925.76
2019-05-31T01:55:16.030Z,925.77
2019-05-31T01:56:15.956Z,925.76
2019-05-31T01:57:16.029Z,925.78
2019-05-31T01:58:16.070Z,925.84
2019-05-31T01:59:16.102Z,925.83
2019-05-31T02:00:16.205Z,925.79
2019-05-31T02:01:16.199Z,925.78
2019-05-31T02:02:16.267Z,925.78
2019-05-31T02:03:16.491Z,925.73
2019-05-31T02:04:16.344Z,925.77
2019-05-31T02:05:16.590Z,925.78
2019-05-31T02:06:18.654Z,925.80
2019-05-31T02:07:16.764Z,925.84
2019-05-31T02:08:16.985Z,925.86
2019-05-31T02:09:17.088Z,925.84
2019-05-31T02:10:17.251Z,925.86
2019-05-31T02:11:17.109Z,925.85
2019-05-31T02:12:17.312Z,925.82
2019-05-31T02:13:16.707Z,925.85
2019-05-31T02:14:16.795Z,925.82
2019-05-31T02:15:31.662Z,925.85
2019-05-31T02:16:16.860Z,925.82
2019-05-31T02:17:16.896Z,925.81
2019-05-31T02:18:17.048Z,925.79
2019-05-31T02:19:16.992Z,925.81
2019-05-31T02:20:17.100Z,925.80
2019-05-31T02:21:17.094Z,925.75
2019-05-31T02:22:17.124Z,925.72
2019-05-31T02:23:17.203Z,925.68
2019-05-31T02:24:17.507Z,925.67
2019-05-31T02:25:17.268Z,925.73
2019-05-31T02:26:17.315Z,925.80
2019-05-31T02:27:17.362Z,925.80
2019-05-31T02:28:17.391Z,925.85
2019-05-31T02:29:17.492Z,925.82
2019-05-31T02:30:20.175Z,925.74
2019-05-31T02:31:17.516Z,925.67
2019-05-31T02:32:18.059Z,925.57
2019-05-31T02:33:18.023Z,925.59
2019-05-31T02:34:17.582Z,925.65
2019-05-31T02:35:18.429Z,925.68
2019-05-31T02:36:17.784Z,925.74
2019-05-31T02:37:17.774Z,925.75
2019-05-31T02:38:18.374Z,925.74
2019-05-31T02:39:18.297Z,925.76
2019-05-31T02:40:18.964Z,925.79
2019-05-31T02:41:18.315Z,925.77
2019-05-31T02:42:17.965Z,925.75
2019-05-31T02:43:18.512Z,925.73
2019-05-31T02:44:18.688Z,925.71
2019-05-31T02:45:18.811Z,925.72
2019-05-31T02:46:18.127Z,925.73
2019-05-31T02:47:18.433Z,925.73
2019-05-31T02:48:19.090Z,925.71
2019-05-31T02:49:18.524Z,925.73
2019-05-31T02:50:19.798Z,925.71
2019-05-31T02:51:19.374Z,925.74
2019-05-31T02:52:19.720Z,925.75
2019-05-31T02:53:19.298Z,925.77
2019-05-31T02:54:19.319Z,925.79
2019-05-31T02:55:19.134Z,925.84
2019-05-31T02:56:18.960Z,925.82
2019-05-31T02:57:19.968Z,925.83
2019-05-31T02:58:21.210Z,925.80
2019-05-31T02:59:19.456Z,925.79
2019-05-31T03:00:22.007Z,925.74
2019-05-31T03:01:20.882Z,925.69
2019-05-31T03:02:19.644Z,925.73
2019-05-31T03:03:20.296Z,925.69
2019-05-31T03:04:19.794Z,925.71
2019-05-31T03:05:21.330Z,925.63
2019-05-31T03:06:20.615Z,925.67
2019-05-31T03:07:20.600Z,925.67
2019-05-31T03:08:20.450Z,925.71
2019-05-31T03:09:20.618Z,925.70
2019-05-31T03:10:20.863Z,925.74
2019-05-31T03:11:21.109Z,925.69
2019-05-31T03:12:20.950Z,925.66
2019-05-31T03:13:21.173Z,925.63
2019-05-31T03:14:21.105Z,925.63
2019-05-31T03:15:21.944Z,925.57
2019-05-31T03:16:20.464Z,925.52
2019-05-31T03:17:19.796Z,925.50
2019-05-31T03:18:19.866Z,925.47
2019-05-31T03:19:20.051Z,925.52
2019-05-31T03:20:21.013Z,925.52
2019-05-31T03:21:21.228Z,925.50
2019-05-31T03:22:20.462Z,925.53
2019-05-31T03:23:21.008Z,925.51
2019-05-31T03:24:21.361Z,925.51
2019-05-31T03:25:21.439Z,925.52
2019-05-31T03:26:20.880Z,925.49
2019-05-31T03:27:20.767Z,925.49
2019-05-31T03:28:21.568Z,925.49
2019-05-31T03:29:21.326Z,925.52
2019-05-31T03:30:28.252Z,925.49
2019-05-31T03:31:28.738Z,925.48
2019-05-31T03:32:32.971Z,925.48
2019-05-31T03:33:29.390Z,925.43
2019-05-31T03:34:26.992Z,925.43
2019-05-31T03:35:27.974Z,925.42
2019-05-31T03:36:27.172Z,925.39
2019-05-31T03:37:21.180Z,925.34
2019-05-31T03:38:21.292Z,925.32
2019-05-31T03:39:20.920Z,925.31
2019-05-31T03:40:21.609Z,925.32
2019-05-31T03:41:20.878Z,925.31
2019-05-31T03:42:20.955Z,925.27
2019-05-31T03:43:22.053Z,925.25
2019-05-31T03:44:21.027Z,925.25
2019-05-31T03:45:21.425Z,925.22
2019-05-31T03:46:34.794Z,925.24
2019-05-31T03:47:21.073Z,925.20
2019-05-31T03:48:22.143Z,925.21
2019-05-31T03:49:20.925Z,925.17
2019-05-31T03:50:22.853Z,925.20
2019-05-31T03:51:23.009Z,925.15
2019-05-31T03:52:21.429Z,925.11
2019-05-31T03:53:22.066Z,925.10
2019-05-31T03:54:21.393Z,925.05
2019-05-31T03:55:21.756Z,925.06
2019-05-31T03:56:21.313Z,925.07
2019-05-31T03:57:21.795Z,925.04
2019-05-31T03:58:23.526Z,925.07
2019-05-31T03:59:21.609Z,925.08
2019-05-31T04:00:21.645Z,925.13
2019-05-31T04:01:21.705Z,925.10
2019-05-31T04:02:21.705Z,925.04
2019-05-31T04:03:23.211Z,925.02
2019-05-31T04:04:21.925Z,924.99
2019-05-31T04:05:23.030Z,924.94
2019-05-31T04:06:21.865Z,924.90
2019-05-31T04:07:22.998Z,924.89
2019-05-31T04:08:24.392Z,924.89
2019-05-31T04:09:23.462Z,924.94
2019-05-31T04:10:22.219Z,924.89
2019-05-31T04:11:23.449Z,924.88
2019-05-31T04:12:21.955Z,924.87
2019-05-31T04:13:23.363Z,924.83
2019-05-31T04:14:23.803Z,924.83
2019-05-31T04:15:23.593Z,924.82
2019-05-31T04:16:22.620Z,924.83
2019-05-31T04:17:23.562Z,924.86
2019-05-31T04:18:30.825Z,924.86
2019-05-31T04:19:24.023Z,924.85
2019-05-31T04:20:23.046Z,924.85
2019-05-31T04:21:23.494Z,924.80
2019-05-31T04:22:23.884Z,924.79
2019-05-31T04:23:24.471Z,924.77
2019-05-31T04:24:23.944Z,924.75
2019-05-31T04:25:22.939Z,924.74
2019-05-31T04:26:23.885Z,924.75
2019-05-31T04:27:24.446Z,924.78
2019-05-31T04:28:24.608Z,924.84
2019-05-31T04:29:24.209Z,924.85
2019-05-31T04:30:24.288Z,924.88
2019-05-31T04:31:24.336Z,924.93
2019-05-31T04:32:24.391Z,924.91
2019-05-31T04:33:24.502Z,924.95
2019-05-31T04:34:24.503Z,924.93
2019-05-31T04:35:24.966Z,924.98
2019-05-31T04:36:24.281Z,924.98
2019-05-31T04:37:24.262Z,924.98
2019-05-31T04:38:25.378Z,925.02
2019-05-31T04:39:24.226Z,925.02
2019-05-31T04:40:24.919Z,925.03
2019-05-31T04:41:24.636Z,925.04
2019-05-31T04:42:25.176Z,925.03
2019-05-31T04:43:24.715Z,924.99
2019-05-31T04:44:24.403Z,925.02
2019-05-31T04:45:24.600Z,925.05
2019-05-31T04:46:24.336Z,925.12
2019-05-31T04:47:24.758Z,925.09
2019-05-31T04:48:24.758Z,925.10
2019-05-31T04:49:24.212Z,925.14
2019-05-31T04:50:25.678Z,925.18
2019-05-31T04:51:24.335Z,925.18
2019-05-31T04:52:24.679Z,925.23
2019-05-31T04:53:24.705Z,925.18
2019-05-31T04:54:24.485Z,925.18
2019-05-31T04:55:24.410Z,925.14
2019-05-31T04:56:25.018Z,925.17
2019-05-31T04:57:24.514Z,925.16
2019-05-31T04:58:27.534Z,925.09
2019-05-31T04:59:24.935Z,925.10
2019-05-31T05:00:27.971Z,925.07
2019-05-31T05:01:24.796Z,925.07
2019-05-31T05:02:25.314Z,925.06
2019-05-31T05:03:27.083Z,925.06
2019-05-31T05:04:24.646Z,925.02
2019-05-31T05:05:24.859Z,925.06
2019-05-31T05:06:24.813Z,925.01
2019-05-31T05:07:24.891Z,925.04
2019-05-31T05:08:24.944Z,925.00
2019-05-31T05:09:30.539Z,924.99
2019-05-31T05:10:24.885Z,925.02
2019-05-31T05:11:24.771Z,924.99
2019-05-31T05:12:24.774Z,924.98
2019-05-31T05:13:24.841Z,924.95
2019-05-31T05:14:24.888Z,924.99
2019-05-31T05:15:24.919Z,925.03
2019-05-31T05:16:24.808Z,925.01
2019-05-31T05:17:38.352Z,924.96
2019-05-31T05:18:26.275Z,924.99
2019-05-31T05:19:25.025Z,925.02
2019-05-31T05:20:25.008Z,925.06
2019-05-31T05:21:25.018Z,925.05
2019-05-31T05:22:25.102Z,925.08
2019-05-31T05:23:25.134Z,925.10
2019-05-31T05:24:25.195Z,925.09
2019-05-31T05:25:25.257Z,925.09
2019-05-31T05:26:25.269Z,925.08
2019-05-31T05:27:25.472Z,925.08
2019-05-31T05:28:25.525Z,925.06
2019-05-31T05:29:25.706Z,925.06
2019-05-31T05:30:25.689Z,925.03
2019-05-31T05:31:25.918Z,925.03
2019-05-31T05:32:25.961Z,924.99
2019-05-31T05:33:26.305Z,925.00
2019-05-31T05:34:26.238Z,924.94
2019-05-31T05:35:26.350Z,924.93
2019-05-31T05:36:26.449Z,924.89
2019-05-31T05:37:26.562Z,924.88
2019-05-31T05:38:26.610Z,924.85
2019-05-31T05:39:26.850Z,924.76
2019-05-31T05:40:26.905Z,924.74
2019-05-31T05:41:26.036Z,924.69
2019-05-31T05:42:27.065Z,924.59
2019-05-31T05:43:27.177Z,924.56
2019-05-31T05:44:27.222Z,924.56
2019-05-31T05:45:27.925Z,924.50
2019-05-31T05:46:27.392Z,924.42
2019-05-31T05:47:27.342Z,924.45
2019-05-31T05:48:27.521Z,924.44
2019-05-31T05:49:26.277Z,924.47
2019-05-31T05:50:26.287Z,924.48
2019-05-31T05:51:26.380Z,924.43
2019-05-31T05:52:26.452Z,924.43
2019-05-31T05:53:26.458Z,924.46
2019-05-31T05:54:26.530Z,924.44
2019-05-31T05:55:26.695Z,924.43
2019-05-31T05:56:26.856Z,924.39
2019-05-31T05:57:26.900Z,924.36
2019-05-31T05:58:28.621Z,924.34
2019-05-31T05:59:27.317Z,924.30
2019-05-31T06:00:27.857Z,924.27
2019-05-31T06:01:27.428Z,924.27
2019-05-31T06:02:27.503Z,924.26
2019-05-31T06:03:27.787Z,924.27
2019-05-31T06:04:28.103Z,924.24
2019-05-31T06:05:28.004Z,924.20
2019-05-31T06:06:28.198Z,924.19
2019-05-31T06:07:28.206Z,924.17
2019-05-31T06:08:31.856Z,924.15
2019-05-31T06:09:28.425Z,924.08
2019-05-31T06:10:27.211Z,923.99
2019-05-31T06:11:27.250Z,924.01
2019-05-31T06:12:27.286Z,923.96
2019-05-31T06:13:28.618Z,923.95
2019-05-31T06:14:28.198Z,923.94
2019-05-31T06:15:27.983Z,923.91
2019-05-31T06:16:38.130Z,923.90
2019-05-31T06:17:28.179Z,923.91
2019-05-31T06:18:28.172Z,923.90
2019-05-31T06:19:28.647Z,923.94
2019-05-31T06:20:28.280Z,923.96
2019-05-31T06:21:28.270Z,923.97
2019-05-31T06:22:30.913Z,924.00
2019-05-31T06:23:28.497Z,924.01
2019-05-31T06:24:28.608Z,923.99
2019-05-31T06:25:30.779Z,924.02
2019-05-31T06:26:28.465Z,923.99
2019-05-31T06:27:28.582Z,923.95
2019-05-31T06:28:28.636Z,923.88
2019-05-31T06:29:28.678Z,923.91
2019-05-31T06:30:28.733Z,923.84
2019-05-31T06:31:28.818Z,923.88
2019-05-31T06:32:28.864Z,923.86
2019-05-31T06:33:29.296Z,923.88
2019-05-31T06:34:28.723Z,923.89
2019-05-31T06:35:28.891Z,923.89
2019-05-31T06:36:28.676Z,923.90
2019-05-31T06:37:29.035Z,923.89
2019-05-31T06:38:28.878Z,923.90
2019-05-31T06:39:28.983Z,923.95
2019-05-31T06:40:29.212Z,923.99
2019-05-31T06:41:28.591Z,923.97
2019-05-31T06:42:29.143Z,923.96
2019-05-31T06:43:33.242Z,923.99
2019-05-31T06:44:29.253Z,923.98
2019-05-31T06:45:28.757Z,923.96
2019-05-31T06:46:29.847Z,923.88
2019-05-31T06:47:28.860Z,923.85
2019-05-31T06:48:29.699Z,923.82
2019-05-31T06:49:28.959Z,923.83
2019-05-31T06:50:33.620Z,923.87
2019-05-31T06:51:29.047Z,923.92
2019-05-31T06:52:30.190Z,923.91
2019-05-31T06:53:29.320Z,924.00
2019-05-31T06:54:30.612Z,924.02
2019-05-31T06:55:29.475Z,924.02
2019-05-31T06:56:29.647Z,923.98
2019-05-31T06:57:29.926Z,923.96
2019-05-31T06:58:30.004Z,924.00
2019-05-31T06:59:30.046Z,923.95
2019-05-31T07:00:31.301Z,923.97
2019-05-31T07:01:30.758Z,923.98
2019-05-31T07:02:30.157Z,924.07
2019-05-31T07:03:30.867Z,924.05
2019-05-31T07:04:31.206Z,924.08
2019-05-31T07:05:29.685Z,924.08
2019-05-31T07:06:30.684Z,924.05
2019-05-31T07:07:37.081Z,923.97
2019-05-31T07:08:30.894Z,923.96
2019-05-31T07:09:32.062Z,923.98
2019-05-31T07:10:31.372Z,923.88
2019-05-31T07:11:31.159Z,923.89
2019-05-31T07:12:29.968Z,923.89
2019-05-31T07:13:30.027Z,923.89
2019-05-31T07:14:30.072Z,923.86
2019-05-31T07:15:30.112Z,923.87
2019-05-31T07:16:31.416Z,923.88
2019-05-31T07:17:30.221Z,923.82
2019-05-31T07:18:38.784Z,923.83
2019-05-31T07:19:30.300Z,923.83
2019-05-31T07:20:30.349Z,923.85
2019-05-31T07:21:31.143Z,923.87
2019-05-31T07:22:30.562Z,923.88
2019-05-31T07:23:34.145Z,923.89
2019-05-31T07:24:30.565Z,923.87
2019-05-31T07:25:30.915Z,923.83
2019-05-31T07:26:30.910Z,923.80
2019-05-31T07:27:31.022Z,923.86
2019-05-31T07:28:31.082Z,923.90
2019-05-31T07:29:35.626Z,923.90
2019-05-31T07:30:31.402Z,923.91
2019-05-31T07:31:30.819Z,923.92
2019-05-31T07:32:31.681Z,923.93
2019-05-31T07:33:31.900Z,923.89
2019-05-31T07:34:31.856Z,923.90
2019-05-31T07:35:32.096Z,923.88
2019-05-31T07:36:32.123Z,923.87
2019-05-31T07:37:34.927Z,923.84
2019-05-31T07:38:32.270Z,923.88
2019-05-31T07:39:32.798Z,923.83
2019-05-31T07:40:31.228Z,923.91
2019-05-31T07:41:31.278Z,923.93
2019-05-31T07:42:31.347Z,923.89
2019-05-31T07:43:31.387Z,923.94
2019-05-31T07:44:31.399Z,923.92
2019-05-31T07:45:31.477Z,923.86
2019-05-31T07:46:51.286Z,923.89
2019-05-31T07:47:31.583Z,923.89
2019-05-31T07:48:32.208Z,923.93
2019-05-31T07:49:31.899Z,923.91
2019-05-31T07:50:32.225Z,923.87
2019-05-31T07:51:32.314Z,923.87
2019-05-31T07:52:32.398Z,923.88
2019-05-31T07:53:32.578Z,923.90
2019-05-31T07:54:32.698Z,923.93
2019-05-31T07:55:32.733Z,923.97
2019-05-31T07:56:32.807Z,923.97
2019-05-31T07:57:32.011Z,924.08
2019-05-31T07:58:33.203Z,924.08
2019-05-31T07:59:32.071Z,924.09
2019-05-31T08:00:33.005Z,924.08
2019-05-31T08:01:32.937Z,924.03
2019-05-31T08:02:32.706Z,924.01
2019-05-31T08:03:32.934Z,923.98
2019-05-31T08:04:32.963Z,923.98
2019-05-31T08:05:33.536Z,923.94
2019-05-31T08:06:34.626Z,923.93
2019-05-31T08:07:33.379Z,923.95
2019-05-31T08:08:36.251Z,924.03
2019-05-31T08:09:33.595Z,924.05
2019-05-31T08:10:33.662Z,924.07
2019-05-31T08:11:33.261Z,924.05
2019-05-31T08:12:33.455Z,923.97
2019-05-31T08:13:33.709Z,923.98
2019-05-31T08:14:33.812Z,924.02
2019-05-31T08:15:33.765Z,924.07
2019-05-31T08:16:33.966Z,924.11
2019-05-31T08:17:33.365Z,924.13
2019-05-31T08:18:35.997Z,924.16
2019-05-31T08:19:33.528Z,924.17
2019-05-31T08:20:33.674Z,924.25
2019-05-31T08:21:34.438Z,924.29
2019-05-31T08:22:33.638Z,924.33
2019-05-31T08:23:35.042Z,924.34
2019-05-31T08:24:34.214Z,924.34
2019-05-31T08:25:34.534Z,924.37
2019-05-31T08:26:33.960Z,924.35
2019-05-31T08:27:34.303Z,924.33
2019-05-31T08:28:34.485Z,924.35
2019-05-31T08:29:34.191Z,924.35
2019-05-31T08:30:34.585Z,924.29
2019-05-31T08:31:34.994Z,924.31
2019-05-31T08:32:34.542Z,924.35
2019-05-31T08:33:35.092Z,924.39
2019-05-31T08:34:33.628Z,924.41
2019-05-31T08:35:33.703Z,924.38
2019-05-31T08:36:35.191Z,924.39
2019-05-31T08:37:34.429Z,924.38
2019-05-31T08:38:34.745Z,924.39
2019-05-31T08:39:34.819Z,924.37
2019-05-31T08:40:37.129Z,924.36
2019-05-31T08:41:34.602Z,924.40
2019-05-31T08:42:34.723Z,924.40
2019-05-31T08:43:35.424Z,924.42
2019-05-31T08:44:34.887Z,924.41
2019-05-31T08:45:34.982Z,924.44
2019-05-31T08:46:35.133Z,924.45
2019-05-31T08:47:35.709Z,924.48
2019-05-31T08:48:35.511Z,924.53
2019-05-31T08:49:44.086Z,924.52
2019-05-31T08:50:35.374Z,924.50
2019-05-31T08:51:35.457Z,924.54
2019-05-31T08:52:43.015Z,924.47
2019-05-31T08:53:35.722Z,924.48
2019-05-31T08:54:35.407Z,924.48
2019-05-31T08:55:35.761Z,924.42
2019-05-31T08:56:35.790Z,924.41
2019-05-31T08:57:35.929Z,924.40
2019-05-31T08:58:36.034Z,924.40
2019-05-31T08:59:35.850Z,924.38
2019-05-31T09:00:36.200Z,924.39
2019-05-31T09:01:36.046Z,924.39
2019-05-31T09:02:36.186Z,924.42
2019-05-31T09:03:41.581Z,924.42
2019-05-31T09:04:36.149Z,924.40
2019-05-31T09:05:36.373Z,924.44
2019-05-31T09:06:36.216Z,924.48
2019-05-31T09:07:36.330Z,924.47
2019-05-31T09:08:36.347Z,924.49
2019-05-31T09:09:36.513Z,924.51
2019-05-31T09:10:36.644Z,924.55
2019-05-31T09:11:35.821Z,924.50
2019-05-31T09:12:36.539Z,924.47
2019-05-31T09:13:36.395Z,924.51
2019-05-31T09:14:36.221Z,924.46
2019-05-31T09:15:36.383Z,924.52
2019-05-31T09:16:36.846Z,924.54
2019-05-31T09:17:36.286Z,924.54
2019-05-31T09:18:36.652Z,924.55
2019-05-31T09:19:53.973Z,924.56
2019-05-31T09:20:37.619Z,924.53
2019-05-31T09:21:36.720Z,924.53
2019-05-31T09:22:36.761Z,924.53
2019-05-31T09:23:36.892Z,924.50
2019-05-31T09:24:36.018Z,924.55
2019-05-31T09:25:36.942Z,924.55
2019-05-31T09:26:38.511Z,924.55
2019-05-31T09:27:48.170Z,924.56
2019-05-31T09:28:36.289Z,924.57
2019-05-31T09:30:01.529Z,924.58
2019-05-31T09:30:36.411Z,924.61
2019-05-31T09:31:37.051Z,924.59
2019-05-31T09:32:37.921Z,924.62
2019-05-31T09:33:38.076Z,924.59
2019-05-31T09:34:36.832Z,924.58
2019-05-31T09:35:37.836Z,924.58
2019-05-31T09:36:36.871Z,924.59
2019-05-31T09:37:37.055Z,924.60
2019-05-31T09:38:37.059Z,924.60
2019-05-31T09:39:41.327Z,924.58
2019-05-31T09:40:37.208Z,924.62
2019-05-31T09:41:37.533Z,924.61
2019-05-31T09:42:37.399Z,924.58
2019-05-31T09:43:37.302Z,924.59
2019-05-31T09:44:37.555Z,924.55
2019-05-31T09:45:38.148Z,924.61
2019-05-31T09:46:37.661Z,924.60
2019-05-31T09:47:37.760Z,924.61
2019-05-31T09:48:37.535Z,924.60
2019-05-31T09:49:37.638Z,924.62
2019-05-31T09:50:37.548Z,924.63
2019-05-31T09:51:38.216Z,924.70
2019-05-31T09:52:38.338Z,924.66
2019-05-31T09:53:37.772Z,924.69
2019-05-31T09:54:48.361Z,924.71
2019-05-31T09:55:37.771Z,924.75
2019-05-31T09:56:38.988Z,924.78
2019-05-31T09:57:38.574Z,924.76
2019-05-31T09:58:37.913Z,924.77
2019-05-31T09:59:38.723Z,924.81
2019-05-31T10:00:39.147Z,924.79
2019-05-31T10:01:38.716Z,924.84
2019-05-31T10:02:38.361Z,924.86
2019-05-31T10:03:39.397Z,924.90
2019-05-31T10:04:38.080Z,924.89
2019-05-31T10:05:38.186Z,924.91
2019-05-31T10:06:38.368Z,924.94
2019-05-31T10:07:38.229Z,924.94
2019-05-31T10:08:41.298Z,925.02
2019-05-31T10:09:38.298Z,925.05
2019-05-31T10:10:39.516Z,925.03
2019-05-31T10:11:40.924Z,925.03
2019-05-31T10:12:39.278Z,925.03
2019-05-31T10:13:38.440Z,925.01
2019-05-31T10:14:39.434Z,925.01
2019-05-31T10:15:39.317Z,925.07
2019-05-31T10:16:38.875Z,925.09
2019-05-31T10:17:39.908Z,925.10
2019-05-31T10:18:39.271Z,925.10
2019-05-31T10:19:39.330Z,925.11
2019-05-31T10:20:39.631Z,925.14
2019-05-31T10:21:38.850Z,925.12
2019-05-31T10:22:39.811Z,925.12
2019-05-31T10:23:51.653Z,925.13
2019-05-31T10:24:38.798Z,925.14
2019-05-31T10:25:40.603Z,925.14
2019-05-31T10:26:38.912Z,925.11
2019-05-31T10:27:39.204Z,925.00
2019-05-31T10:28:39.117Z,925.01
2019-05-31T10:29:39.360Z,925.03
2019-05-31T10:30:39.328Z,925.02
2019-05-31T10:31:39.250Z,925.02
2019-05-31T10:32:39.705Z,925.09
2019-05-31T10:33:39.687Z,925.12
2019-05-31T10:34:40.014Z,925.11
2019-05-31T10:35:40.062Z,925.11
2019-05-31T10:36:39.708Z,925.12
2019-05-31T10:37:40.449Z,925.11
2019-05-31T10:38:40.338Z,925.09
2019-05-31T10:39:39.970Z,925.11
2019-05-31T10:40:39.907Z,925.10
2019-05-31T10:41:39.839Z,925.08
2019-05-31T10:42:40.042Z,925.09
2019-05-31T10:43:40.082Z,925.10
2019-05-31T10:44:40.183Z,925.14
2019-05-31T10:45:40.407Z,925.14
2019-05-31T10:46:41.049Z,925.12
2019-05-31T10:47:40.364Z,925.14
2019-05-31T10:48:40.242Z,925.17
2019-05-31T10:49:40.243Z,925.22
2019-05-31T10:50:52.986Z,925.22
2019-05-31T10:51:40.439Z,925.20
2019-05-31T10:52:42.041Z,925.17
2019-05-31T10:53:40.254Z,925.22
2019-05-31T10:54:44.188Z,925.22
2019-05-31T10:55:40.198Z,925.25
2019-05-31T10:56:40.254Z,925.22
2019-05-31T10:57:40.533Z,925.24
2019-05-31T10:58:40.464Z,925.20
2019-05-31T10:59:41.389Z,925.25
2019-05-31T11:00:42.607Z,925.21
2019-05-31T11:01:40.488Z,925.26
2019-05-31T11:02:40.546Z,925.33
2019-05-31T11:03:40.795Z,925.34
2019-05-31T11:04:40.807Z,925.28
2019-05-31T11:05:42.034Z,925.30
2019-05-31T11:06:41.007Z,925.26
2019-05-31T11:07:40.893Z,925.37
2019-05-31T11:08:41.011Z,925.34
2019-05-31T11:09:40.987Z,925.36
2019-05-31T11:10:41.658Z,925.33
2019-05-31T11:11:42.900Z,925.34
2019-05-31T11:12:41.310Z,925.40
2019-05-31T11:13:41.232Z,925.38
2019-05-31T11:14:41.222Z,925.43
2019-05-31T11:15:47.736Z,925.43
2019-05-31T11:16:41.645Z,925.50
2019-05-31T11:17:47.666Z,925.52
2019-05-31T11:18:42.182Z,925.46
2019-05-31T11:19:59.180Z,925.46
2019-05-31T11:20:41.518Z,925.48
2019-05-31T11:21:41.529Z,925.48
2019-05-31T11:22:42.341Z,925.48
2019-05-31T11:23:41.721Z,925.53
2019-05-31T11:24:41.397Z,925.58
2019-05-31T11:25:42.072Z,925.68
2019-05-31T11:26:42.853Z,925.62
2019-05-31T11:27:42.180Z,925.68
2019-05-31T11:28:42.003Z,925.68
2019-05-31T11:29:48.069Z,925.71
2019-05-31T11:30:42.120Z,925.78
2019-05-31T11:31:42.366Z,925.69
2019-05-31T11:32:48.444Z,925.82
2019-05-31T11:33:45.172Z,925.71
2019-05-31T11:34:42.647Z,925.79
2019-05-31T11:35:43.932Z,925.83
2019-05-31T11:36:42.231Z,925.89
2019-05-31T11:37:43.732Z,925.82
2019-05-31T11:38:42.818Z,925.86
2019-05-31T11:39:43.319Z,925.88
2019-05-31T11:40:42.970Z,925.85
2019-05-31T11:41:43.052Z,925.88
2019-05-31T11:43:01.006Z,925.89
2019-05-31T11:43:42.695Z,925.92
2019-05-31T11:44:43.799Z,925.94
2019-05-31T11:45:44.498Z,925.91
2019-05-31T11:46:44.055Z,925.98
2019-05-31T11:47:46.134Z,926.01
2019-05-31T11:48:43.040Z,926.02
2019-05-31T11:49:43.369Z,926.10
2019-05-31T11:50:43.258Z,926.04
2019-05-31T11:51:43.059Z,926.04
2019-05-31T11:52:43.400Z,925.97
2019-05-31T11:53:47.607Z,926.06
2019-05-31T11:55:10.289Z,926.01
2019-05-31T11:55:43.179Z,926.03
2019-05-31T11:56:45.109Z,926.03
2019-05-31T11:57:43.620Z,926.05
2019-05-31T11:58:43.788Z,926.02
2019-05-31T11:59:44.342Z,926.07
2019-05-31T12:00:43.998Z,926.14
2019-05-31T12:01:44.657Z,926.15
2019-05-31T12:02:47.637Z,926.15
2019-05-31T12:03:44.123Z,926.15
2019-05-31T12:04:43.967Z,926.16
2019-05-31T12:05:43.841Z,926.24
2019-05-31T12:06:43.605Z,926.23
2019-05-31T12:07:44.526Z,926.25
2019-05-31T12:08:43.872Z,926.25
2019-05-31T12:09:44.624Z,926.30
2019-05-31T12:10:44.453Z,926.37
2019-05-31T12:11:44.026Z,926.37
2019-05-31T12:12:46.025Z,926.36
2019-05-31T12:13:44.352Z,926.33
2019-05-31T12:14:46.087Z,926.32
2019-05-31T12:15:44.179Z,926.35
2019-05-31T12:16:51.209Z,926.32
2019-05-31T12:17:44.160Z,926.30
2019-05-31T12:18:46.594Z,926.30
2019-05-31T12:19:45.160Z,926.28
2019-05-31T12:20:44.442Z,926.32
2019-05-31T12:21:55.606Z,926.26
2019-05-31T12:22:44.698Z,926.24
2019-05-31T12:23:44.993Z,926.24
2019-05-31T12:24:44.740Z,926.26
2019-05-31T12:25:44.699Z,926.21
2019-05-31T12:26:44.957Z,926.26
2019-05-31T12:27:45.067Z,926.22
2019-05-31T12:28:44.769Z,926.34